Aeroporto :
LOGIN :

Iscrizione | Disclaimer

   EN    FR    IT 

 










Sommario :    VFR   VFR Marginale   IFR   IFR Intensivo   IFR Molto Intensivo
Visibilità : 
Base nubi : 
>= 8 km
>= 3000ft
5 / 8 km
1000 / 3000 ft
1500m / 5 km
500 / 1000 ft
800 / 1500m
200 / 500 ft
< 800m
< 200 ft
Simboli :   Temporali  Nebbia  Neve Forte  Precipitazioni Forti  Vento > 20 kt
SIGMETs :   Varie  Temporali  Ghiacco  Turbolenza  Onda orograficha  Ceneri Vulcaniche






- Altitudine del aeroporto : 10 ft
- Codice IATA : MOL


ENML - Molde

ULTIMO METAR :
  • 012120Z AUTO 26027KT 9999NDV -SHRA SCT040/// BKN066/// 03/M02 Q0995

METARs OBSOLETI :
  • 012050Z AUTO 27019KT 9999NDV -SHRA BKN043/// OVC060/// 03/M01 Q0995
  • 012020Z AUTO 26024G34KT 9999NDV FEW035/// BKN054/// 04/M02 Q0995
  • 011950Z AUTO 26027G37KT 9999NDV -SHRA SCT027/// BKN038/// BKN049/// 03/M00 Q0996
  • 011920Z AUTO 26022G32KT 9999NDV FEW031/// SCT045/// BKN056/// 03/M01 Q0996
  • 011850Z AUTO 26025KT 9999NDV -SHRA FEW014/// SCT035/// BKN056/// 03/M00 Q0995

Previsioni scadute.



MetMap, La meteo Aeronautica in un colpo d'occhio ! - Copyright ORBIFLY Dicembre 2007 - Disclaimer

ORBIFLY MET'MAP TEAM :

Programmazione e sviluppo : Alexandra Zaïnal
Concezione : Baudouin d'Aumeries
Aiuto per la programmazione : Marc-Olivier Méhu
Supporto tecnico e logistico : Manuel Goepfert
Aiuto per la traduzione : Arnaldo La Scala

Contatto : metmap@orbifly.com




FONTI E CREDITI :

   NOAA